Munroe Falls, Ohio
Current Conditions -  °F | °C
As of 11:54 PM on Monday 20 Oct 2014 (Local Time) from KAKR Reporting Station
Overcast Overcast  
Wind Chill: 52°   Ceiling: 600
Heat Index: 52°   Visibility: 8mi
Dew Point: 49°   Wind: 5mph
Humidity: 89%   Direction: 240°WSW
Pressure: 29.85"   Gusts: NA
Location:  41.14°N, 81.44°W
Report Text: KAKR 210354Z AUTO 24004KT 8SM BKN006 OVC012 11/09 A2985 RMK AO2 RAE38 CIG 004V008 SLP107 P0001 T01110094
Loading
Personal Weather Stations






























Interactive Weather Map
Tropical Storm Tracking
New forecast layout! Learn more

10-Day Weather Forecast

Advertisements
Track Severe Weather on mobile